Time;durP1;ratioP1;P1;durP2;ratioP2;P2;SDS_P1;SDS_P2;PMS_P1;PMS_P2;Temp;Humidity;BMP_temperature;BMP_pressure;BME280_temperature;BME280_humidity;BME280_pressure;Samples;Min_cycle;Max_cycle;Signal;HPM_P1;HPM_P2
2023/09/04 00:03:53;;;;;;;6.90;2.95;;;13.40;99.90;;;;;;8274481;28;20165;-81
2023/09/04 00:07:53;;;;;;;3.83;2.60;;;13.30;99.90;;;;;;8253537;28;20483;-81
2023/09/04 00:11:54;;;;;;;3.53;2.95;;;13.20;99.90;;;;;;8268098;28;20056;-82
2023/09/04 00:15:56;;;;;;;5.90;3.42;;;13.10;99.90;;;;;;8260434;28;20014;-82
2023/09/04 00:19:56;;;;;;;3.85;3.45;;;13.00;99.90;;;;;;8274392;28;20064;-82
2023/09/04 00:23:57;;;;;;;5.85;3.17;;;13.00;99.90;;;;;;8272517;28;20490;-82
2023/09/04 00:27:58;;;;;;;6.55;3.90;;;13.00;99.90;;;;;;8279275;28;20116;-82
2023/09/04 00:31:58;;;;;;;4.72;3.80;;;12.80;99.90;;;;;;8261112;28;20037;-82
2023/09/04 00:36:00;;;;;;;4.60;3.65;;;12.90;99.90;;;;;;8269235;28;20079;-82
2023/09/04 00:40:01;;;;;;;4.78;3.97;;;12.90;99.90;;;;;;8290243;28;20042;-82
2023/09/04 00:44:01;;;;;;;7.30;4.07;;;12.90;99.90;;;;;;8286415;28;20042;-82
2023/09/04 00:48:03;;;;;;;5.55;4.15;;;12.80;99.90;;;;;;8268429;28;20478;-81
2023/09/04 00:52:05;;;;;;;6.60;3.97;;;13.00;99.90;;;;;;8259627;28;20030;-81
2023/09/04 00:56:07;;;;;;;5.05;4.20;;;13.00;99.90;;;;;;8273776;28;20114;-82
2023/09/04 01:00:10;;;;;;;5.07;4.40;;;13.00;99.90;;;;;;8273574;28;20164;-82
2023/09/04 01:04:11;;;;;;;5.80;3.85;;;13.00;99.90;;;;;;8272411;28;20080;-83
2023/09/04 01:08:12;;;;;;;5.00;4.28;;;13.10;99.90;;;;;;8267089;28;20085;-83
2023/09/04 01:12:22;;;;;;;4.85;4.40;;;13.10;99.90;;;;;;8287087;28;20092;-82
2023/09/04 01:16:23;;;;;;;5.30;4.65;;;13.10;99.90;;;;;;8293372;28;20391;-82
2023/09/04 01:20:29;;;;;;;7.50;4.63;;;13.10;99.90;;;;;;8282930;28;20026;-83
2023/09/04 01:24:30;;;;;;;6.93;4.35;;;13.00;99.90;;;;;;8271644;28;20100;-83
2023/09/04 01:28:56;;;;;;;7.05;4.50;;;13.00;99.90;;;;;;8288899;28;20491;-83
2023/09/04 01:33:01;;;;;;;5.13;4.22;;;12.90;99.90;;;;;;8269270;28;20030;-82
2023/09/04 01:37:03;;;;;;;9.80;4.03;;;12.90;99.90;;;;;;8256315;28;20402;-82
2023/09/04 01:41:05;;;;;;;4.70;4.18;;;12.90;99.90;;;;;;8258179;28;20376;-83
2023/09/04 01:45:07;;;;;;;5.40;4.50;;;12.90;99.90;;;;;;8273700;28;20106;-82
2023/09/04 01:49:08;;;;;;;5.25;4.40;;;12.90;99.90;;;;;;8269490;28;20022;-81
2023/09/04 01:53:08;;;;;;;7.03;4.72;;;12.80;99.90;;;;;;8261014;28;20034;-83
2023/09/04 01:57:09;;;;;;;8.50;5.13;;;12.90;99.90;;;;;;8282750;28;20042;-83
2023/09/04 02:01:09;;;;;;;6.22;4.93;;;12.90;99.90;;;;;;8284085;28;20038;-82
2023/09/04 02:05:10;;;;;;;5.30;4.55;;;12.90;99.90;;;;;;8271764;28;20072;-83
2023/09/04 02:09:11;;;;;;;6.63;4.65;;;12.90;99.90;;;;;;8278910;28;20025;-82
2023/09/04 02:13:11;;;;;;;6.97;5.03;;;13.00;99.90;;;;;;8271976;28;20106;-83
2023/09/04 02:17:12;;;;;;;7.13;5.30;;;12.90;99.90;;;;;;8264895;28;20037;-83
2023/09/04 02:21:12;;;;;;;5.30;4.40;;;13.00;99.90;;;;;;8255066;28;20026;-82
2023/09/04 02:25:13;;;;;;;6.00;5.28;;;13.00;99.90;;;;;;8274952;28;20487;-82
2023/09/04 02:29:14;;;;;;;7.55;5.53;;;13.00;99.90;;;;;;8264068;28;20023;-82
2023/09/04 02:33:15;;;;;;;6.20;5.28;;;13.00;99.90;;;;;;8267007;28;20491;-82
2023/09/04 02:37:16;;;;;;;8.80;5.30;;;13.00;99.90;;;;;;8273133;28;20441;-82
2023/09/04 02:41:16;;;;;;;12.90;6.03;;;13.00;99.90;;;;;;8262006;28;20171;-82
2023/09/04 02:45:17;;;;;;;7.93;4.90;;;13.00;99.90;;;;;;8260442;28;20665;-82
2023/09/04 02:49:17;;;;;;;7.53;5.47;;;13.00;99.90;;;;;;8260187;28;20019;-81
2023/09/04 02:53:18;;;;;;;5.53;4.82;;;13.00;99.90;;;;;;8254410;28;20048;-81
2023/09/04 02:57:18;;;;;;;6.03;5.03;;;13.00;99.90;;;;;;8259910;28;20030;-83
2023/09/04 03:01:19;;;;;;;4.82;4.22;;;12.90;99.90;;;;;;8278491;28;20031;-82
2023/09/04 03:05:20;;;;;;;6.57;5.40;;;12.90;99.90;;;;;;8285454;28;20053;-82
2023/09/04 03:09:20;;;;;;;7.50;5.10;;;12.80;99.90;;;;;;8264861;28;20018;-80
2023/09/04 03:13:21;;;;;;;6.65;5.07;;;12.70;99.90;;;;;;8252501;28;20022;-81
2023/09/04 03:17:22;;;;;;;7.47;5.85;;;12.60;99.90;;;;;;8265184;28;20117;-82
2023/09/04 03:21:22;;;;;;;8.18;5.53;;;12.40;99.90;;;;;;8250535;28;20295;-81
2023/09/04 03:25:23;;;;;;;6.63;5.50;;;12.40;99.90;;;;;;8274814;28;20110;-82
2023/09/04 03:29:23;;;;;;;8.85;5.40;;;12.30;99.90;;;;;;8284922;28;20018;-82
2023/09/04 03:33:24;;;;;;;7.03;5.22;;;12.20;99.90;;;;;;8252678;28;20601;-82
2023/09/04 03:37:24;;;;;;;8.15;5.68;;;12.10;99.90;;;;;;8262896;28;20050;-82
2023/09/04 03:41:26;;;;;;;7.35;5.70;;;12.10;99.90;;;;;;8272167;28;20053;-81
2023/09/04 03:45:34;;;;;;;7.55;6.22;;;12.00;99.90;;;;;;8287871;28;20061;-82
2023/09/04 03:49:35;;;;;;;10.65;7.18;;;11.90;99.90;;;;;;8275813;28;20114;-81
2023/09/04 03:53:35;;;;;;;10.27;6.80;;;11.90;99.90;;;;;;8267983;28;20026;-81
2023/09/04 03:57:36;;;;;;;9.55;7.28;;;11.90;99.90;;;;;;8293027;28;20026;-82
2023/09/04 04:01:37;;;;;;;8.40;6.47;;;11.80;99.90;;;;;;8290767;28;20018;-81
2023/09/04 04:05:37;;;;;;;8.77;5.82;;;11.80;99.90;;;;;;8263020;28;20031;-82
2023/09/04 04:09:38;;;;;;;10.95;6.68;;;11.60;99.90;;;;;;8268292;28;20121;-82
2023/09/04 04:13:39;;;;;;;8.55;6.15;;;11.60;99.90;;;;;;8271587;28;20091;-83
2023/09/04 04:17:40;;;;;;;12.82;7.10;;;11.60;99.90;;;;;;8272153;28;20030;-81
2023/09/04 04:21:41;;;;;;;13.60;7.30;;;11.50;99.90;;;;;;8252060;28;20034;-82
2023/09/04 04:25:41;;;;;;;12.50;7.97;;;11.50;99.90;;;;;;8290644;28;20094;-81
2023/09/04 04:29:47;;;;;;;13.90;8.32;;;11.60;99.90;;;;;;8268005;28;20073;-82
2023/09/04 04:33:48;;;;;;;11.25;7.00;;;11.60;99.90;;;;;;8261311;28;20437;-79
2023/09/04 04:37:49;;;;;;;6.43;5.78;;;11.60;99.90;;;;;;8252856;28;20041;-81
2023/09/04 04:41:49;;;;;;;10.63;6.85;;;11.60;99.90;;;;;;8253166;28;20022;-81
2023/09/04 04:45:50;;;;;;;10.32;7.30;;;11.40;99.90;;;;;;8270212;28;20085;-79
2023/09/04 04:49:50;;;;;;;10.38;7.25;;;11.50;99.90;;;;;;8252953;28;20033;-79
2023/09/04 04:53:51;;;;;;;8.18;6.00;;;11.50;99.90;;;;;;8267027;28;20475;-80
2023/09/04 04:57:53;;;;;;;11.07;7.03;;;11.50;99.90;;;;;;8254625;28;20014;-79
2023/09/04 05:01:56;;;;;;;10.95;8.48;;;11.50;99.90;;;;;;8276642;28;20025;-80
2023/09/04 05:05:56;;;;;;;16.45;9.55;;;11.60;99.90;;;;;;8261488;28;20273;-77
2023/09/04 05:09:57;;;;;;;13.45;8.82;;;11.80;99.90;;;;;;8287089;28;20031;-78
2023/09/04 05:13:57;;;;;;;14.13;9.95;;;11.90;99.90;;;;;;8259143;28;20474;-79
2023/09/04 05:17:58;;;;;;;14.63;9.45;;;11.90;99.90;;;;;;8268120;28;20023;-81
2023/09/04 05:21:58;;;;;;;13.88;10.00;;;11.90;99.90;;;;;;8271972;28;20027;-79
2023/09/04 05:25:59;;;;;;;18.58;11.43;;;12.00;99.90;;;;;;8254140;28;20043;-80
2023/09/04 05:30:00;;;;;;;15.63;10.85;;;12.10;99.90;;;;;;8271399;28;20037;-78
2023/09/04 05:34:00;;;;;;;14.98;10.25;;;12.30;99.90;;;;;;8277167;28;20022;-79
2023/09/04 05:38:01;;;;;;;27.45;17.80;;;12.40;99.90;;;;;;8254249;28;20018;-78
2023/09/04 05:42:02;;;;;;;16.48;11.95;;;12.50;99.90;;;;;;8266518;28;20034;-79
2023/09/04 05:46:02;;;;;;;13.32;9.60;;;12.50;99.90;;;;;;8252466;28;20037;-80
2023/09/04 05:50:03;;;;;;;14.55;9.70;;;12.70;99.90;;;;;;8265666;28;20029;-78
2023/09/04 05:54:04;;;;;;;12.90;9.57;;;12.80;99.90;;;;;;8264732;28;20422;-79
2023/09/04 05:58:04;;;;;;;11.98;9.93;;;12.90;99.90;;;;;;8267412;28;20026;-80
2023/09/04 06:02:05;;;;;;;22.00;10.07;;;13.30;99.90;;;;;;8256427;28;20612;-78
2023/09/04 06:06:06;;;;;;;12.15;9.30;;;13.30;99.90;;;;;;8258096;28;20029;-79
2023/09/04 06:10:06;;;;;;;11.52;9.25;;;13.40;99.90;;;;;;8257728;28;20034;-79
2023/09/04 06:14:07;;;;;;;13.65;9.90;;;13.70;99.90;;;;;;8267890;28;20093;-79
2023/09/04 06:18:08;;;;;;;21.63;9.38;;;13.90;99.90;;;;;;8268669;28;20027;-79
2023/09/04 06:22:08;;;;;;;11.27;9.02;;;14.30;99.90;;;;;;8251130;28;20049;-80
2023/09/04 06:26:09;;;;;;;14.48;8.57;;;14.40;99.90;;;;;;8266678;28;20093;-79
2023/09/04 06:30:10;;;;;;;10.85;7.95;;;14.50;99.90;;;;;;8257675;28;20501;-79
2023/09/04 06:34:11;;;;;;;8.63;7.53;;;14.60;99.90;;;;;;8249396;28;20025;-78
2023/09/04 06:38:12;;;;;;;13.77;7.53;;;15.00;99.90;;;;;;8272140;28;20557;-78
2023/09/04 06:42:13;;;;;;;8.98;8.05;;;15.20;99.90;;;;;;8250628;28;20467;-80
2023/09/04 06:46:14;;;;;;;12.70;7.30;;;15.40;99.90;;;;;;8249483;28;20026;-78
2023/09/04 06:50:14;;;;;;;7.40;6.57;;;15.50;99.90;;;;;;8250007;28;20080;-80
2023/09/04 06:54:15;;;;;;;10.57;6.75;;;15.80;99.90;;;;;;8271202;28;20532;-79
2023/09/04 06:58:15;;;;;;;7.75;6.50;;;15.90;99.90;;;;;;8267266;28;20027;-79
2023/09/04 07:02:16;;;;;;;8.43;7.00;;;15.80;99.90;;;;;;8262246;28;20033;-77
2023/09/04 07:06:17;;;;;;;7.80;5.93;;;16.00;99.90;;;;;;8256738;28;20121;-80
2023/09/04 07:10:17;;;;;;;8.20;6.70;;;16.40;99.90;;;;;;8261736;28;20517;-79
2023/09/04 07:14:18;;;;;;;6.78;5.90;;;16.50;99.90;;;;;;8271927;28;20045;-79
2023/09/04 07:18:18;;;;;;;7.65;5.85;;;16.80;99.90;;;;;;8273959;28;20180;-78
2023/09/04 07:22:19;;;;;;;6.63;5.25;;;17.10;99.90;;;;;;8253688;28;20029;-78
2023/09/04 07:26:19;;;;;;;7.22;4.90;;;17.40;99.90;;;;;;8266562;28;20483;-79
2023/09/04 07:30:20;;;;;;;5.05;4.38;;;17.60;99.90;;;;;;8273311;28;20486;-79
2023/09/04 07:34:21;;;;;;;7.07;4.80;;;17.80;99.90;;;;;;8247964;28;20029;-78
2023/09/04 07:38:22;;;;;;;6.55;4.93;;;18.20;99.90;;;;;;8248070;28;20018;-79
2023/09/04 07:42:22;;;;;;;6.70;4.22;;;18.60;99.90;;;;;;8264232;28;20029;-80
2023/09/04 07:46:23;;;;;;;4.45;3.92;;;19.20;99.90;;;;;;8270911;28;20069;-78
2023/09/04 07:50:23;;;;;;;3.72;3.38;;;19.70;99.90;;;;;;8248140;28;20375;-80
2023/09/04 07:54:24;;;;;;;4.05;3.55;;;20.10;99.90;;;;;;8250233;28;20042;-80
2023/09/04 07:58:25;;;;;;;5.65;3.60;;;20.80;99.90;;;;;;8272783;28;20498;-80
2023/09/04 08:02:26;;;;;;;4.75;3.38;;;20.90;99.90;;;;;;8272361;28;20035;-80
2023/09/04 08:06:26;;;;;;;5.47;4.05;;;20.90;99.90;;;;;;8254717;28;20030;-81
2023/09/04 08:10:27;;;;;;;4.35;3.20;;;21.10;99.90;;;;;;8265842;28;20668;-80
2023/09/04 08:14:33;;;;;;;5.22;3.35;;;21.30;99.90;;;;;;8247853;28;20026;-81
2023/09/04 08:18:33;;;;;;;4.35;3.50;;;21.30;99.90;;;;;;8247461;28;20033;-79
2023/09/04 08:22:34;;;;;;;4.88;3.22;;;21.50;99.90;;;;;;8254021;28;20019;-79
2023/09/04 08:26:35;;;;;;;5.03;3.17;;;21.80;99.90;;;;;;8248538;28;20054;-81
2023/09/04 08:30:35;;;;;;;3.38;3.08;;;21.90;99.90;;;;;;8267217;28;20487;-79
2023/09/04 08:34:36;;;;;;;3.75;3.13;;;22.10;99.90;;;;;;8284040;28;20050;-80
2023/09/04 08:38:36;;;;;;;4.45;3.33;;;22.20;99.90;;;;;;8271679;28;20034;-80
2023/09/04 08:42:38;;;;;;;13.57;3.67;;;22.40;99.90;;;;;;8284903;28;20030;-80
2023/09/04 08:46:41;;;;;;;2.92;2.72;;;22.80;99.90;;;;;;8252183;28;20514;-81
2023/09/04 08:50:43;;;;;;;4.05;2.90;;;23.00;99.90;;;;;;8271142;28;20030;-80
2023/09/04 08:54:43;;;;;;;6.00;2.85;;;22.90;99.90;;;;;;8273693;28;20696;-81
2023/09/04 08:58:44;;;;;;;4.13;2.65;;;22.90;99.90;;;;;;8269264;28;20053;-79
2023/09/04 09:02:45;;;;;;;3.33;2.88;;;23.10;99.90;;;;;;8267501;28;20049;-81
2023/09/04 09:06:48;;;;;;;3.33;2.70;;;23.40;99.90;;;;;;8262600;28;20065;-79
2023/09/04 09:10:49;;;;;;;11.45;3.40;;;23.30;99.90;;;;;;8275406;28;20486;-79
2023/09/04 09:14:50;;;;;;;3.00;2.70;;;23.50;99.90;;;;;;8259750;28;20025;-78
2023/09/04 09:18:53;;;;;;;5.38;3.17;;;23.40;99.90;;;;;;8274086;28;20018;-79
2023/09/04 09:22:55;;;;;;;3.90;2.78;;;23.40;99.90;;;;;;8268179;28;20027;-78
2023/09/04 09:26:56;;;;;;;3.10;2.60;;;23.50;99.90;;;;;;8275290;28;20026;-80
2023/09/04 09:30:58;;;;;;;4.28;2.58;;;23.70;99.90;;;;;;8275355;28;20034;-78
2023/09/04 09:35:00;;;;;;;7.75;2.67;;;23.90;99.90;;;;;;8264904;28;20100;-80
2023/09/04 09:39:02;;;;;;;2.78;2.55;;;24.00;99.90;;;;;;8278613;28;20079;-79
2023/09/04 09:43:03;;;;;;;2.38;2.08;;;24.10;99.90;;;;;;8266893;28;20026;-78
2023/09/04 09:47:07;;;;;;;5.13;2.50;;;24.40;99.90;;;;;;8273164;28;20026;-79
2023/09/04 09:51:10;;;;;;;3.28;2.00;;;24.30;99.90;;;;;;8272653;28;20027;-79
2023/09/04 09:55:23;;;;;;;2.70;1.83;;;24.50;99.90;;;;;;8263429;28;20487;-79
2023/09/04 09:59:24;;;;;;;2.20;2.00;;;24.80;99.90;;;;;;8279552;28;20634;-79
2023/09/04 10:03:24;;;;;;;3.97;1.88;;;25.00;99.90;;;;;;8285077;28;20030;-80
2023/09/04 10:07:27;;;;;;;4.15;1.98;;;25.30;99.90;;;;;;8283977;28;20018;-79
2023/09/04 10:11:32;;;;;;;3.08;1.90;;;25.40;99.90;;;;;;8261538;28;20035;-80
2023/09/04 10:15:36;;;;;;;2.53;2.00;;;25.80;99.90;;;;;;8279374;28;20046;-80
2023/09/04 10:19:40;;;;;;;2.22;1.90;;;25.70;99.90;;;;;;8252006;28;20054;-80
2023/09/04 10:23:48;;;;;;;3.53;2.05;;;26.40;99.90;;;;;;8251672;28;20022;-78
2023/09/04 10:28:02;;;;;;;2.13;1.70;;;27.30;99.90;;;;;;8278923;28;20037;-79
2023/09/04 10:32:03;;;;;;;2.20;2.00;;;26.60;99.90;;;;;;8254441;28;20415;-80
2023/09/04 10:36:05;;;;;;;2.33;1.60;;;27.10;99.90;;;;;;8279698;28;20033;-80
2023/09/04 10:40:07;;;;;;;1.98;1.77;;;27.30;99.90;;;;;;8274396;28;20023;-79
2023/09/04 10:44:09;;;;;;;2.78;1.58;;;28.10;99.90;;;;;;8273464;28;20018;-79
2023/09/04 10:48:10;;;;;;;4.30;2.10;;;28.40;99.90;;;;;;8260174;28;20023;-79
2023/09/04 10:52:12;;;;;;;8.05;2.17;;;28.20;99.90;;;;;;8269568;28;20030;-80
2023/09/04 10:56:12;;;;;;;2.00;1.80;;;27.70;99.90;;;;;;8252143;28;20038;-79
2023/09/04 11:00:28;;;;;;;4.78;1.63;;;27.10;99.90;;;;;;8263617;28;20034;-80
2023/09/04 11:04:32;;;;;;;3.10;1.80;;;27.00;99.90;;;;;;8249700;28;20623;-79
2023/09/04 11:08:40;;;;;;;2.40;2.20;;;27.60;99.90;;;;;;8287874;28;20091;-81
2023/09/04 11:12:44;;;;;;;2.10;1.90;;;27.70;99.90;;;;;;8257095;28;20025;-80
2023/09/04 11:16:48;;;;;;;2.00;1.60;;;28.60;99.30;;;;;;8267034;28;20022;-78
2023/09/04 11:20:54;;;;;;;2.13;1.92;;;28.30;98.70;;;;;;8267534;28;20026;-79
2023/09/04 11:24:55;;;;;;;2.25;1.80;;;27.50;97.80;;;;;;8271552;28;20025;-81
2023/09/04 11:29:02;;;;;;;2.30;1.83;;;28.50;98.00;;;;;;8265514;28;20030;-81
2023/09/04 11:33:03;;;;;;;2.72;2.10;;;29.20;98.20;;;;;;8248864;28;20041;-79
2023/09/04 11:37:05;;;;;;;2.40;1.90;;;28.40;96.30;;;;;;8255830;28;20026;-80
2023/09/04 11:41:16;;;;;;;4.00;2.13;;;28.90;95.20;;;;;;8265734;28;20029;-81
2023/09/04 11:45:17;;;;;;;4.68;2.05;;;30.40;91.80;;;;;;8256440;28;20019;-81
2023/09/04 11:49:18;;;;;;;2.50;2.28;;;30.40;92.40;;;;;;8281709;28;20081;-81
2023/09/04 11:53:19;;;;;;;4.50;2.35;;;31.40;90.70;;;;;;8281415;28;20099;-80
2023/09/04 11:57:21;;;;;;;2.63;1.95;;;31.40;87.50;;;;;;8260104;28;20121;-81
2023/09/04 12:01:21;;;;;;;4.10;1.85;;;30.70;89.80;;;;;;8256358;28;20438;-81
2023/09/04 12:05:22;;;;;;;2.85;2.28;;;30.90;91.10;;;;;;8245497;28;20101;-82
2023/09/04 12:09:22;;;;;;;2.47;1.85;;;31.10;85.70;;;;;;8268791;28;20026;-80
2023/09/04 12:13:23;;;;;;;2.63;2.20;;;30.90;83.40;;;;;;8273422;28;20030;-81
2023/09/04 12:17:27;;;;;;;2.90;2.55;;;30.40;86.30;;;;;;8273389;28;20025;-79
2023/09/04 12:21:27;;;;;;;3.30;2.20;;;31.50;84.50;;;;;;8285272;28;20022;-80
2023/09/04 12:25:36;;;;;;;3.53;2.40;;;31.00;84.60;;;;;;8254052;28;20081;-80
2023/09/04 12:29:36;;;;;;;3.20;2.33;;;31.90;84.40;;;;;;8255989;28;20033;-80
2023/09/04 12:33:41;;;;;;;7.78;2.60;;;30.40;81.10;;;;;;8256807;28;20109;-81
2023/09/04 12:37:41;;;;;;;4.45;2.33;;;30.20;80.40;;;;;;8251188;28;20029;-80
2023/09/04 12:41:42;;;;;;;4.45;2.50;;;31.20;79.80;;;;;;8258673;28;20109;-80
2023/09/04 12:45:43;;;;;;;2.83;2.53;;;30.90;77.90;;;;;;8272695;28;20437;-81
2023/09/04 12:49:43;;;;;;;4.18;2.40;;;30.50;78.50;;;;;;8263194;28;20048;-83
2023/09/04 12:53:44;;;;;;;2.30;2.10;;;31.10;79.10;;;;;;8268127;28;20030;-80
2023/09/04 12:57:47;;;;;;;4.53;2.60;;;30.20;75.60;;;;;;8252686;28;20117;-82
2023/09/04 13:01:47;;;;;;;3.92;2.50;;;30.30;79.80;;;;;;8256740;28;20021;-80
2023/09/04 13:05:48;;;;;;;3.10;2.50;;;31.20;73.00;;;;;;8260996;28;20049;-80
2023/09/04 13:09:49;;;;;;;3.53;2.55;;;31.00;76.80;;;;;;8250126;28;20034;-81
2023/09/04 13:13:49;;;;;;;4.65;2.40;;;31.50;74.60;;;;;;8249567;28;20026;-80
2023/09/04 13:17:50;;;;;;;3.75;2.30;;;32.60;77.10;;;;;;8248863;28;20521;-81
2023/09/04 13:21:50;;;;;;;4.30;2.42;;;33.20;76.60;;;;;;8267826;28;20030;-81
2023/09/04 13:25:51;;;;;;;2.75;2.55;;;33.00;73.40;;;;;;8273147;28;20387;-81
2023/09/04 13:29:52;;;;;;;3.33;2.42;;;34.30;72.30;;;;;;8266092;28;20023;-81
2023/09/04 13:33:52;;;;;;;4.20;2.70;;;34.10;68.90;;;;;;8250829;28;20030;-81
2023/09/04 13:37:53;;;;;;;3.80;2.63;;;32.90;67.50;;;;;;8249593;28;20114;-81
2023/09/04 13:41:53;;;;;;;3.63;2.72;;;31.40;70.00;;;;;;8254883;28;20548;-81
2023/09/04 13:45:54;;;;;;;3.97;2.63;;;31.80;72.20;;;;;;8275832;28;20022;-82
2023/09/04 13:49:55;;;;;;;7.60;2.97;;;32.50;66.70;;;;;;8263272;28;20029;-80
2023/09/04 13:53:55;;;;;;;3.42;2.60;;;31.80;68.20;;;;;;8273953;28;20237;-81
2023/09/04 13:57:56;;;;;;;3.83;2.60;;;32.40;67.30;;;;;;8264606;28;20075;-81
2023/09/04 14:01:58;;;;;;;5.22;2.55;;;33.60;66.90;;;;;;8275562;28;20398;-81
2023/09/04 14:05:58;;;;;;;2.72;2.50;;;35.00;64.20;;;;;;8280339;28;20019;-81
2023/09/04 14:09:59;;;;;;;3.22;2.50;;;34.80;64.70;;;;;;8262903;28;20054;-80
2023/09/04 14:14:00;;;;;;;3.42;2.22;;;34.00;68.40;;;;;;8289178;28;20109;-81
2023/09/04 14:18:00;;;;;;;4.82;2.33;;;35.00;61.50;;;;;;8249092;28;20458;-81
2023/09/04 14:22:01;;;;;;;16.85;3.58;;;35.00;63.30;;;;;;8255726;28;20041;-79
2023/09/04 14:26:01;;;;;;;3.35;2.53;;;33.10;64.50;;;;;;8269679;28;20068;-82
2023/09/04 14:30:02;;;;;;;2.58;2.35;;;33.50;65.20;;;;;;8255746;28;20030;-80
2023/09/04 14:34:03;;;;;;;5.22;2.50;;;34.60;65.50;;;;;;8252088;28;20026;-81
2023/09/04 14:38:06;;;;;;;2.50;2.22;;;35.00;62.50;;;;;;8245901;28;20026;-81
2023/09/04 14:42:08;;;;;;;3.45;2.72;;;34.00;63.50;;;;;;8264266;28;20034;-80
2023/09/04 14:46:09;;;;;;;2.50;2.30;;;32.80;63.10;;;;;;8248383;28;20054;-79
2023/09/04 14:50:09;;;;;;;3.85;2.75;;;32.60;64.80;;;;;;8263402;28;20053;-81
2023/09/04 14:54:10;;;;;;;3.80;2.70;;;32.50;62.60;;;;;;8277454;28;20030;-80
2023/09/04 14:58:10;;;;;;;4.22;2.40;;;32.40;65.50;;;;;;8251563;28;20036;-79
2023/09/04 15:02:11;;;;;;;4.32;2.60;;;31.50;69.20;;;;;;8254867;28;20077;-80
2023/09/04 15:06:12;;;;;;;2.80;2.58;;;29.30;77.10;;;;;;8253264;28;20030;-79
2023/09/04 15:10:13;;;;;;;4.70;2.90;;;27.40;83.60;;;;;;8269776;28;20019;-81
2023/09/04 15:14:13;;;;;;;3.63;2.83;;;26.20;86.70;;;;;;8267988;28;20037;-81
2023/09/04 15:18:14;;;;;;;7.53;2.70;;;25.70;88.70;;;;;;8243523;28;20058;-80
2023/09/04 15:22:14;;;;;;;3.17;2.88;;;25.40;88.70;;;;;;8246802;28;20499;-81
2023/09/04 15:26:15;;;;;;;3.03;2.70;;;25.30;90.90;;;;;;8262268;28;20033;-81
2023/09/04 15:30:15;;;;;;;6.25;2.70;;;26.10;90.30;;;;;;8250216;28;20042;-79
2023/09/04 15:34:16;;;;;;;4.20;2.95;;;27.60;85.00;;;;;;8251014;28;20486;-80
2023/09/04 15:38:17;;;;;;;3.53;2.70;;;28.30;82.90;;;;;;8246507;28;20442;-81
2023/09/04 15:42:17;;;;;;;2.90;2.60;;;29.00;83.90;;;;;;8257642;28;20062;-79
2023/09/04 15:46:18;;;;;;;2.50;2.22;;;29.10;84.10;;;;;;8242407;28;20114;-80
2023/09/04 15:50:19;;;;;;;9.85;3.08;;;28.90;82.50;;;;;;8251537;28;20027;-80
2023/09/04 15:54:20;;;;;;;3.70;2.35;;;28.90;82.00;;;;;;8262792;28;20518;-82
2023/09/04 15:58:21;;;;;;;4.10;2.70;;;28.90;84.20;;;;;;8276099;28;20029;-80
2023/09/04 16:02:22;;;;;;;2.92;2.30;;;28.50;82.20;;;;;;8263744;28;20553;-81
2023/09/04 16:06:22;;;;;;;2.88;2.60;;;28.00;86.10;;;;;;8267996;28;20031;-83
2023/09/04 16:10:23;;;;;;;3.63;2.70;;;26.90;87.60;;;;;;8260980;28;20022;-84
2023/09/04 16:14:24;;;;;;;3.25;2.75;;;25.70;90.40;;;;;;8253308;28;20495;-84
2023/09/04 16:18:24;;;;;;;4.10;2.45;;;25.00;90.70;;;;;;8285458;28;20514;-84
2023/09/04 16:22:25;;;;;;;4.82;2.45;;;24.70;90.10;;;;;;8283712;28;20442;-83
2023/09/04 16:26:26;;;;;;;3.15;2.65;;;24.40;87.90;;;;;;8268560;28;20031;-83
2023/09/04 16:30:27;;;;;;;4.78;2.58;;;24.30;88.50;;;;;;8276000;28;20055;-83
2023/09/04 16:34:27;;;;;;;2.88;2.50;;;24.20;90.30;;;;;;8259287;28;20046;-84
2023/09/04 16:38:29;;;;;;;3.53;2.90;;;23.90;91.70;;;;;;8275299;28;20018;-83
2023/09/04 16:42:30;;;;;;;4.45;2.40;;;23.80;90.70;;;;;;8285093;28;20034;-83
2023/09/04 16:46:31;;;;;;;6.15;2.70;;;23.70;92.60;;;;;;8271529;28;20022;-83
2023/09/04 16:50:32;;;;;;;4.13;2.60;;;23.40;92.30;;;;;;8288372;28;20604;-83
2023/09/04 16:54:33;;;;;;;3.72;2.58;;;23.10;92.40;;;;;;8290255;28;20034;-84
2023/09/04 16:58:33;;;;;;;4.65;2.67;;;23.00;93.40;;;;;;8267934;28;20503;-84
2023/09/04 17:02:34;;;;;;;4.30;3.22;;;22.70;93.20;;;;;;8278842;28;20029;-83
2023/09/04 17:06:35;;;;;;;4.03;2.60;;;22.60;93.60;;;;;;8265368;28;20049;-83
2023/09/04 17:10:35;;;;;;;4.05;2.95;;;22.40;95.10;;;;;;8281626;28;20053;-84
2023/09/04 17:14:36;;;;;;;4.28;2.58;;;22.10;95.70;;;;;;8290419;28;20482;-83
2023/09/04 17:18:36;;;;;;;3.80;2.72;;;21.80;96.50;;;;;;8279210;28;20106;-83
2023/09/04 17:22:37;;;;;;;4.32;2.80;;;21.60;97.90;;;;;;8254936;28;20113;-83
2023/09/04 17:26:37;;;;;;;3.55;2.40;;;21.40;98.30;;;;;;8272631;28;20030;-84
2023/09/04 17:30:38;;;;;;;3.28;2.72;;;21.50;98.00;;;;;;8263141;28;20026;-84
2023/09/04 17:34:38;;;;;;;3.80;3.00;;;21.30;99.00;;;;;;8272369;28;20037;-83
2023/09/04 17:38:39;;;;;;;3.70;2.90;;;21.20;99.50;;;;;;8261826;28;20132;-81
2023/09/04 17:42:49;;;;;;;6.32;2.70;;;21.10;99.20;;;;;;8278328;28;20038;-79
2023/09/04 17:46:50;;;;;;;4.20;2.73;;;20.90;99.90;;;;;;8283134;28;20022;-85
2023/09/04 17:50:52;;;;;;;5.25;3.00;;;20.50;99.90;;;;;;8256698;28;20031;-82
2023/09/04 17:54:52;;;;;;;3.78;2.90;;;20.30;99.90;;;;;;8279242;28;20023;-83
2023/09/04 17:58:53;;;;;;;3.67;3.05;;;20.10;99.90;;;;;;8263698;28;20111;-81
2023/09/04 18:02:54;;;;;;;4.78;2.80;;;20.00;99.90;;;;;;8259658;28;20026;-82
2023/09/04 18:06:55;;;;;;;3.55;2.80;;;19.60;99.90;;;;;;8273556;28;20034;-81
2023/09/04 18:11:03;;;;;;;5.25;3.45;;;19.40;99.90;;;;;;8252056;28;20030;-82
2023/09/04 18:15:04;;;;;;;4.47;2.95;;;19.40;99.90;;;;;;8277674;28;20195;-82
2023/09/04 18:19:05;;;;;;;4.32;3.05;;;19.10;99.90;;;;;;8258773;28;20037;-83
2023/09/04 18:23:05;;;;;;;4.18;3.10;;;18.80;99.90;;;;;;8287057;28;20054;-81
2023/09/04 18:27:06;;;;;;;3.55;3.22;;;18.70;99.90;;;;;;8269727;28;20033;-83
2023/09/04 18:31:16;;;;;;;4.53;3.40;;;18.50;99.90;;;;;;8268548;28;20116;-82
2023/09/04 18:35:19;;;;;;;3.58;2.90;;;18.60;99.90;;;;;;8266193;28;20503;-82
2023/09/04 18:39:19;;;;;;;7.00;3.40;;;18.90;99.90;;;;;;8254919;28;20109;-82
2023/09/04 18:43:21;;;;;;;3.58;3.00;;;18.70;99.90;;;;;;8255970;28;20041;-82
2023/09/04 18:47:21;;;;;;;4.03;3.10;;;18.60;99.90;;;;;;8255113;28;20023;-82
2023/09/04 18:51:22;;;;;;;5.18;3.53;;;18.70;99.90;;;;;;8260271;28;20115;-81
2023/09/04 18:55:23;;;;;;;3.72;3.00;;;18.50;99.90;;;;;;8276184;28;20034;-82
2023/09/04 18:59:24;;;;;;;5.22;3.40;;;18.50;99.90;;;;;;8268824;28;20056;-83
2023/09/04 19:03:25;;;;;;;4.47;3.70;;;18.20;99.90;;;;;;8262952;28;20045;-82
2023/09/04 19:07:26;;;;;;;5.35;3.30;;;18.10;99.90;;;;;;8287778;28;20026;-82
2023/09/04 19:11:26;;;;;;;4.53;3.60;;;18.10;99.90;;;;;;8251587;28;20511;-82
2023/09/04 19:15:27;;;;;;;3.88;3.22;;;18.50;99.90;;;;;;8263111;28;20037;-80
2023/09/04 19:19:27;;;;;;;4.45;3.22;;;18.40;99.90;;;;;;8271861;28;20026;-81
2023/09/04 19:23:31;;;;;;;4.13;3.15;;;18.10;99.90;;;;;;8254627;28;20018;-81
2023/09/04 19:27:32;;;;;;;4.22;3.33;;;18.10;99.90;;;;;;8256507;28;20077;-81
2023/09/04 19:31:33;;;;;;;5.60;3.45;;;17.90;99.90;;;;;;8259761;28;20031;-82
2023/09/04 19:35:33;;;;;;;4.93;3.92;;;17.90;99.90;;;;;;8259604;28;20026;-82
2023/09/04 19:39:36;;;;;;;5.55;3.40;;;17.70;99.90;;;;;;8253669;28;20045;-82
2023/09/04 19:43:36;;;;;;;4.93;3.80;;;17.70;99.90;;;;;;8268231;28;20064;-82
2023/09/04 19:47:37;;;;;;;4.20;3.60;;;17.80;99.90;;;;;;8280182;28;20391;-82
2023/09/04 19:51:37;;;;;;;4.15;3.38;;;17.60;99.90;;;;;;8276616;28;20023;-82
2023/09/04 19:55:38;;;;;;;4.20;3.58;;;17.50;99.90;;;;;;8274153;28;20029;-81
2023/09/04 19:59:38;;;;;;;5.32;4.28;;;17.60;99.90;;;;;;8258341;28;20030;-81
2023/09/04 20:03:39;;;;;;;4.47;3.60;;;17.50;99.90;;;;;;8267194;28;20676;-82
2023/09/04 20:07:40;;;;;;;4.43;3.72;;;17.60;99.90;;;;;;8252492;28;20026;-82
2023/09/04 20:11:40;;;;;;;4.93;3.85;;;17.40;99.90;;;;;;8249996;28;20026;-81
2023/09/04 20:15:41;;;;;;;5.60;3.42;;;17.30;99.90;;;;;;8261156;28;20113;-81
2023/09/04 20:19:41;;;;;;;4.38;3.83;;;17.10;99.90;;;;;;8274863;28;20025;-81
2023/09/04 20:23:43;;;;;;;4.82;3.63;;;17.00;99.90;;;;;;8274981;28;20035;-81
2023/09/04 20:27:43;;;;;;;5.00;3.95;;;17.00;99.90;;;;;;8271103;28;20031;-81
2023/09/04 20:31:44;;;;;;;4.75;4.03;;;16.80;99.90;;;;;;8265587;28;20052;-81
2023/09/04 20:35:45;;;;;;;6.32;4.10;;;16.70;99.90;;;;;;8291964;28;20017;-80
2023/09/04 20:39:46;;;;;;;5.15;3.97;;;16.70;99.90;;;;;;8259541;28;20505;-82
2023/09/04 20:43:46;;;;;;;5.75;4.10;;;16.60;99.90;;;;;;8257102;28;20042;-81
2023/09/04 20:47:47;;;;;;;4.72;3.78;;;16.90;99.90;;;;;;8257937;28;20030;-79
2023/09/04 20:51:47;;;;;;;6.88;4.07;;;17.10;99.90;;;;;;8254923;28;20018;-81
2023/09/04 20:55:48;;;;;;;4.20;3.70;;;17.10;99.90;;;;;;8270272;28;20023;-82